sensor_id;sensor_type;location;lat;lon;timestamp;temperature;humidity
24326;DHT22;12448;45.532;5.290;2023-09-12T00:01:22;25.10;46.30
24326;DHT22;12448;45.532;5.290;2023-09-12T00:03:48;25.10;45.80
24326;DHT22;12448;45.532;5.290;2023-09-12T00:06:13;25.10;45.80
24326;DHT22;12448;45.532;5.290;2023-09-12T00:08:39;25.10;45.80
24326;DHT22;12448;45.532;5.290;2023-09-12T00:11:06;25.10;45.90
24326;DHT22;12448;45.532;5.290;2023-09-12T00:13:36;25.10;46.60
24326;DHT22;12448;45.532;5.290;2023-09-12T00:16:02;25.10;46.00
24326;DHT22;12448;45.532;5.290;2023-09-12T00:18:27;25.00;46.10
24326;DHT22;12448;45.532;5.290;2023-09-12T00:20:53;24.90;46.40
24326;DHT22;12448;45.532;5.290;2023-09-12T00:23:21;24.80;46.60
24326;DHT22;12448;45.532;5.290;2023-09-12T00:25:47;24.70;46.90
24326;DHT22;12448;45.532;5.290;2023-09-12T00:28:12;24.70;47.10
24326;DHT22;12448;45.532;5.290;2023-09-12T00:30:38;24.60;47.30
24326;DHT22;12448;45.532;5.290;2023-09-12T00:33:04;24.50;47.40
24326;DHT22;12448;45.532;5.290;2023-09-12T00:35:29;24.50;48.20
24326;DHT22;12448;45.532;5.290;2023-09-12T00:37:55;24.50;47.80
24326;DHT22;12448;45.532;5.290;2023-09-12T00:40:20;24.50;47.90
24326;DHT22;12448;45.532;5.290;2023-09-12T00:42:46;24.50;47.70
24326;DHT22;12448;45.532;5.290;2023-09-12T00:45:12;24.40;47.40
24326;DHT22;12448;45.532;5.290;2023-09-12T00:47:38;24.40;47.40
24326;DHT22;12448;45.532;5.290;2023-09-12T00:50:05;24.40;47.10
24326;DHT22;12448;45.532;5.290;2023-09-12T00:52:33;24.40;47.00
24326;DHT22;12448;45.532;5.290;2023-09-12T00:55:00;24.40;47.10
24326;DHT22;12448;45.532;5.290;2023-09-12T00:57:26;24.30;47.20
24326;DHT22;12448;45.532;5.290;2023-09-12T00:59:52;24.20;47.20
24326;DHT22;12448;45.532;5.290;2023-09-12T01:02:19;24.20;47.40
24326;DHT22;12448;45.532;5.290;2023-09-12T01:04:46;24.20;47.50
24326;DHT22;12448;45.532;5.290;2023-09-12T01:07:12;24.20;47.60
24326;DHT22;12448;45.532;5.290;2023-09-12T01:09:37;24.20;47.70
24326;DHT22;12448;45.532;5.290;2023-09-12T01:12:03;24.20;47.70
24326;DHT22;12448;45.532;5.290;2023-09-12T01:14:30;24.30;47.60
24326;DHT22;12448;45.532;5.290;2023-09-12T01:16:56;24.30;47.60
24326;DHT22;12448;45.532;5.290;2023-09-12T01:19:23;24.30;47.60
24326;DHT22;12448;45.532;5.290;2023-09-12T01:27:34;24.30;47.80
24326;DHT22;12448;45.532;5.290;2023-09-12T01:30:05;24.30;48.60
24326;DHT22;12448;45.532;5.290;2023-09-12T01:32:32;24.20;48.00
24326;DHT22;12448;45.532;5.290;2023-09-12T01:34:58;24.20;48.20
24326;DHT22;12448;45.532;5.290;2023-09-12T01:37:24;24.20;48.30
24326;DHT22;12448;45.532;5.290;2023-09-12T01:39:50;24.10;48.50
24326;DHT22;12448;45.532;5.290;2023-09-12T01:42:18;24.10;48.70
24326;DHT22;12448;45.532;5.290;2023-09-12T01:44:45;24.00;48.70
24326;DHT22;12448;45.532;5.290;2023-09-12T01:47:11;24.00;48.60
24326;DHT22;12448;45.532;5.290;2023-09-12T01:49:41;24.00;48.30
24326;DHT22;12448;45.532;5.290;2023-09-12T01:52:07;23.90;48.10
24326;DHT22;12448;45.532;5.290;2023-09-12T01:54:34;24.00;48.20
24326;DHT22;12448;45.532;5.290;2023-09-12T01:57:02;24.00;48.30
24326;DHT22;12448;45.532;5.290;2023-09-12T01:59:28;24.10;48.30
24326;DHT22;12448;45.532;5.290;2023-09-12T02:01:54;24.10;48.30
24326;DHT22;12448;45.532;5.290;2023-09-12T02:04:20;24.10;48.30
24326;DHT22;12448;45.532;5.290;2023-09-12T02:06:46;24.20;48.20
24326;DHT22;12448;45.532;5.290;2023-09-12T02:09:11;24.20;48.10
24326;DHT22;12448;45.532;5.290;2023-09-12T02:11:37;24.10;48.00
24326;DHT22;12448;45.532;5.290;2023-09-12T02:14:03;24.10;48.00
24326;DHT22;12448;45.532;5.290;2023-09-12T02:16:30;24.20;48.00
24326;DHT22;12448;45.532;5.290;2023-09-12T02:18:56;24.20;47.90
24326;DHT22;12448;45.532;5.290;2023-09-12T02:21:22;24.20;47.90
24326;DHT22;12448;45.532;5.290;2023-09-12T02:23:47;24.20;47.60
24326;DHT22;12448;45.532;5.290;2023-09-12T02:26:13;24.20;47.40
24326;DHT22;12448;45.532;5.290;2023-09-12T02:28:38;24.20;47.40
24326;DHT22;12448;45.532;5.290;2023-09-12T02:31:10;24.20;47.40
24326;DHT22;12448;45.532;5.290;2023-09-12T02:33:37;24.20;47.30
24326;DHT22;12448;45.532;5.290;2023-09-12T02:36:02;24.30;47.30
24326;DHT22;12448;45.532;5.290;2023-09-12T02:38:28;24.30;47.20
24326;DHT22;12448;45.532;5.290;2023-09-12T02:40:54;24.30;47.10
24326;DHT22;12448;45.532;5.290;2023-09-12T02:43:20;24.20;47.00
24326;DHT22;12448;45.532;5.290;2023-09-12T02:45:46;24.20;47.00
24326;DHT22;12448;45.532;5.290;2023-09-12T02:48:11;24.20;46.90
24326;DHT22;12448;45.532;5.290;2023-09-12T02:50:37;24.20;46.80
24326;DHT22;12448;45.532;5.290;2023-09-12T02:53:03;24.20;46.90
24326;DHT22;12448;45.532;5.290;2023-09-12T02:55:28;24.20;46.80
24326;DHT22;12448;45.532;5.290;2023-09-12T02:57:54;24.20;46.90
24326;DHT22;12448;45.532;5.290;2023-09-12T03:00:20;24.20;46.90
24326;DHT22;12448;45.532;5.290;2023-09-12T03:02:45;24.10;47.10
24326;DHT22;12448;45.532;5.290;2023-09-12T03:05:11;24.10;47.50
24326;DHT22;12448;45.532;5.290;2023-09-12T03:07:36;24.00;47.10
24326;DHT22;12448;45.532;5.290;2023-09-12T03:10:02;24.10;47.80
24326;DHT22;12448;45.532;5.290;2023-09-12T03:12:29;24.10;47.30
24326;DHT22;12448;45.532;5.290;2023-09-12T03:14:54;24.00;47.20
24326;DHT22;12448;45.532;5.290;2023-09-12T03:17:20;24.00;47.20
24326;DHT22;12448;45.532;5.290;2023-09-12T03:19:46;23.90;47.10
24326;DHT22;12448;45.532;5.290;2023-09-12T03:22:12;23.90;47.20
24326;DHT22;12448;45.532;5.290;2023-09-12T03:24:37;23.80;47.30
24326;DHT22;12448;45.532;5.290;2023-09-12T03:27:03;23.80;47.50
24326;DHT22;12448;45.532;5.290;2023-09-12T03:29:29;23.70;47.70
24326;DHT22;12448;45.532;5.290;2023-09-12T03:31:55;23.70;47.80
24326;DHT22;12448;45.532;5.290;2023-09-12T03:34:20;23.80;48.00
24326;DHT22;12448;45.532;5.290;2023-09-12T03:36:46;23.80;48.00
24326;DHT22;12448;45.532;5.290;2023-09-12T03:39:11;23.70;47.80
24326;DHT22;12448;45.532;5.290;2023-09-12T03:41:39;23.70;47.70
24326;DHT22;12448;45.532;5.290;2023-09-12T03:44:05;23.70;47.70
24326;DHT22;12448;45.532;5.290;2023-09-12T03:46:30;23.70;47.80
24326;DHT22;12448;45.532;5.290;2023-09-12T03:48:56;23.70;47.80
24326;DHT22;12448;45.532;5.290;2023-09-12T03:51:22;23.60;47.90
24326;DHT22;12448;45.532;5.290;2023-09-12T03:53:47;23.50;48.30
24326;DHT22;12448;45.532;5.290;2023-09-12T03:56:15;23.50;48.40
24326;DHT22;12448;45.532;5.290;2023-09-12T03:58:41;23.50;48.20
24326;DHT22;12448;45.532;5.290;2023-09-12T04:01:07;23.50;48.00
24326;DHT22;12448;45.532;5.290;2023-09-12T04:03:33;23.50;48.10
24326;DHT22;12448;45.532;5.290;2023-09-12T04:05:58;23.60;48.40
24326;DHT22;12448;45.532;5.290;2023-09-12T04:08:24;23.60;48.40
24326;DHT22;12448;45.532;5.290;2023-09-12T04:10:50;23.60;48.50
24326;DHT22;12448;45.532;5.290;2023-09-12T04:13:15;23.60;48.40
24326;DHT22;12448;45.532;5.290;2023-09-12T04:15:41;23.50;48.40
24326;DHT22;12448;45.532;5.290;2023-09-12T04:18:06;23.60;48.60
24326;DHT22;12448;45.532;5.290;2023-09-12T04:20:32;23.50;48.60
24326;DHT22;12448;45.532;5.290;2023-09-12T04:23:01;23.50;48.70
24326;DHT22;12448;45.532;5.290;2023-09-12T04:25:27;23.40;48.70
24326;DHT22;12448;45.532;5.290;2023-09-12T04:27:53;23.60;48.70
24326;DHT22;12448;45.532;5.290;2023-09-12T04:30:19;23.60;49.10
24326;DHT22;12448;45.532;5.290;2023-09-12T04:32:44;23.60;48.90
24326;DHT22;12448;45.532;5.290;2023-09-12T04:35:10;23.50;48.70
24326;DHT22;12448;45.532;5.290;2023-09-12T04:37:35;23.60;48.70
24326;DHT22;12448;45.532;5.290;2023-09-12T04:40:01;23.60;48.90
24326;DHT22;12448;45.532;5.290;2023-09-12T04:42:27;23.50;49.00
24326;DHT22;12448;45.532;5.290;2023-09-12T04:44:52;23.50;49.10
24326;DHT22;12448;45.532;5.290;2023-09-12T04:47:18;23.50;49.10
24326;DHT22;12448;45.532;5.290;2023-09-12T04:49:44;23.50;49.30
24326;DHT22;12448;45.532;5.290;2023-09-12T04:52:10;23.50;49.50
24326;DHT22;12448;45.532;5.290;2023-09-12T04:54:35;23.50;49.70
24326;DHT22;12448;45.532;5.290;2023-09-12T04:57:02;23.40;49.80
24326;DHT22;12448;45.532;5.290;2023-09-12T04:59:27;23.40;50.00
24326;DHT22;12448;45.532;5.290;2023-09-12T05:01:53;23.40;50.10
24326;DHT22;12448;45.532;5.290;2023-09-12T05:04:19;23.40;50.30
24326;DHT22;12448;45.532;5.290;2023-09-12T05:06:45;23.40;50.40
24326;DHT22;12448;45.532;5.290;2023-09-12T05:09:12;23.40;50.60
24326;DHT22;12448;45.532;5.290;2023-09-12T05:11:37;23.40;50.70
24326;DHT22;12448;45.532;5.290;2023-09-12T05:14:03;23.40;51.00
24326;DHT22;12448;45.532;5.290;2023-09-12T05:16:29;23.40;51.10
24326;DHT22;12448;45.532;5.290;2023-09-12T05:18:55;23.40;51.20
24326;DHT22;12448;45.532;5.290;2023-09-12T05:21:20;23.40;51.30
24326;DHT22;12448;45.532;5.290;2023-09-12T05:23:46;23.40;51.40
24326;DHT22;12448;45.532;5.290;2023-09-12T05:26:12;23.40;51.40
24326;DHT22;12448;45.532;5.290;2023-09-12T05:28:37;23.40;51.30
24326;DHT22;12448;45.532;5.290;2023-09-12T05:31:03;23.40;51.00
24326;DHT22;12448;45.532;5.290;2023-09-12T05:33:28;23.30;50.80
24326;DHT22;12448;45.532;5.290;2023-09-12T05:35:54;23.30;50.60
24326;DHT22;12448;45.532;5.290;2023-09-12T05:38:20;23.30;51.00
24326;DHT22;12448;45.532;5.290;2023-09-12T05:40:45;23.30;50.40
24326;DHT22;12448;45.532;5.290;2023-09-12T05:43:11;23.30;50.30
24326;DHT22;12448;45.532;5.290;2023-09-12T05:45:37;23.30;50.40
24326;DHT22;12448;45.532;5.290;2023-09-12T05:48:03;23.30;50.50
24326;DHT22;12448;45.532;5.290;2023-09-12T05:50:30;23.40;50.80
24326;DHT22;12448;45.532;5.290;2023-09-12T05:52:55;23.40;50.80
24326;DHT22;12448;45.532;5.290;2023-09-12T05:55:21;23.40;50.80
24326;DHT22;12448;45.532;5.290;2023-09-12T05:57:48;23.40;50.60
24326;DHT22;12448;45.532;5.290;2023-09-12T06:00:17;23.40;50.50
24326;DHT22;12448;45.532;5.290;2023-09-12T06:02:44;23.40;50.40
24326;DHT22;12448;45.532;5.290;2023-09-12T06:05:10;23.30;50.20
24326;DHT22;12448;45.532;5.290;2023-09-12T06:07:36;23.40;50.30
24326;DHT22;12448;45.532;5.290;2023-09-12T06:10:03;23.40;50.20
24326;DHT22;12448;45.532;5.290;2023-09-12T06:12:28;23.00;49.90
24326;DHT22;12448;45.532;5.290;2023-09-12T06:14:54;23.40;50.40
24326;DHT22;12448;45.532;5.290;2023-09-12T06:17:21;23.30;49.60
24326;DHT22;12448;45.532;5.290;2023-09-12T06:19:47;23.30;49.50
24326;DHT22;12448;45.532;5.290;2023-09-12T06:22:14;23.30;49.60
24326;DHT22;12448;45.532;5.290;2023-09-12T06:24:42;23.40;49.60
24326;DHT22;12448;45.532;5.290;2023-09-12T06:27:08;23.30;50.50
24326;DHT22;12448;45.532;5.290;2023-09-12T06:29:34;23.30;50.40
24326;DHT22;12448;45.532;5.290;2023-09-12T06:31:59;23.30;50.90
24326;DHT22;12448;45.532;5.290;2023-09-12T06:34:25;23.30;51.00
24326;DHT22;12448;45.532;5.290;2023-09-12T06:36:52;23.30;51.10
24326;DHT22;12448;45.532;5.290;2023-09-12T06:39:18;23.30;51.00
24326;DHT22;12448;45.532;5.290;2023-09-12T06:41:43;23.30;51.00
24326;DHT22;12448;45.532;5.290;2023-09-12T06:44:09;23.30;50.90
24326;DHT22;12448;45.532;5.290;2023-09-12T06:46:35;23.30;50.90
24326;DHT22;12448;45.532;5.290;2023-09-12T06:49:02;23.40;50.80
24326;DHT22;12448;45.532;5.290;2023-09-12T06:51:28;23.30;50.60
24326;DHT22;12448;45.532;5.290;2023-09-12T06:53:54;23.30;50.70
24326;DHT22;12448;45.532;5.290;2023-09-12T06:56:20;23.30;50.60
24326;DHT22;12448;45.532;5.290;2023-09-12T06:58:47;23.30;50.60
24326;DHT22;12448;45.532;5.290;2023-09-12T07:01:12;23.30;50.60
24326;DHT22;12448;45.532;5.290;2023-09-12T07:03:38;23.30;50.60
24326;DHT22;12448;45.532;5.290;2023-09-12T07:06:04;23.30;50.70
24326;DHT22;12448;45.532;5.290;2023-09-12T07:08:31;23.40;50.90
24326;DHT22;12448;45.532;5.290;2023-09-12T07:10:57;23.40;50.90
24326;DHT22;12448;45.532;5.290;2023-09-12T07:13:23;23.40;51.00
24326;DHT22;12448;45.532;5.290;2023-09-12T07:15:52;23.40;51.20
24326;DHT22;12448;45.532;5.290;2023-09-12T07:18:17;23.40;51.30
24326;DHT22;12448;45.532;5.290;2023-09-12T07:20:43;23.40;51.50
24326;DHT22;12448;45.532;5.290;2023-09-12T07:23:09;23.40;51.60
24326;DHT22;12448;45.532;5.290;2023-09-12T07:25:39;23.30;51.60
24326;DHT22;12448;45.532;5.290;2023-09-12T07:28:08;23.40;51.80
24326;DHT22;12448;45.532;5.290;2023-09-12T07:30:34;23.40;51.80
24326;DHT22;12448;45.532;5.290;2023-09-12T07:33:00;23.40;51.80
24326;DHT22;12448;45.532;5.290;2023-09-12T07:35:25;23.50;51.90
24326;DHT22;12448;45.532;5.290;2023-09-12T07:37:51;23.40;52.00
24326;DHT22;12448;45.532;5.290;2023-09-12T07:40:17;23.40;52.10
24326;DHT22;12448;45.532;5.290;2023-09-12T07:42:43;23.50;52.10
24326;DHT22;12448;45.532;5.290;2023-09-12T07:45:09;23.60;52.10
24326;DHT22;12448;45.532;5.290;2023-09-12T07:47:35;23.60;52.10
24326;DHT22;12448;45.532;5.290;2023-09-12T07:50:00;23.70;52.00
24326;DHT22;12448;45.532;5.290;2023-09-12T07:52:26;23.70;51.90
24326;DHT22;12448;45.532;5.290;2023-09-12T07:54:52;23.80;51.80
24326;DHT22;12448;45.532;5.290;2023-09-12T07:57:23;23.80;51.80
24326;DHT22;12448;45.532;5.290;2023-09-12T07:59:48;23.80;51.80
24326;DHT22;12448;45.532;5.290;2023-09-12T08:02:14;23.80;51.90
24326;DHT22;12448;45.532;5.290;2023-09-12T08:04:40;23.90;51.90
24326;DHT22;12448;45.532;5.290;2023-09-12T08:07:05;23.90;52.00
24326;DHT22;12448;45.532;5.290;2023-09-12T08:09:52;24.00;51.90
24326;DHT22;12448;45.532;5.290;2023-09-12T08:12:20;24.10;52.10
24326;DHT22;12448;45.532;5.290;2023-09-12T08:14:45;24.10;51.80
24326;DHT22;12448;45.532;5.290;2023-09-12T08:17:11;24.10;51.40
24326;DHT22;12448;45.532;5.290;2023-09-12T08:19:37;24.10;51.30
24326;DHT22;12448;45.532;5.290;2023-09-12T08:22:03;24.10;51.20
24326;DHT22;12448;45.532;5.290;2023-09-12T08:24:29;24.10;51.40
24326;DHT22;12448;45.532;5.290;2023-09-12T08:26:54;24.20;51.70
24326;DHT22;12448;45.532;5.290;2023-09-12T08:29:20;24.20;52.00
24326;DHT22;12448;45.532;5.290;2023-09-12T08:31:46;24.20;51.80
24326;DHT22;12448;45.532;5.290;2023-09-12T08:34:13;24.30;51.90
24326;DHT22;12448;45.532;5.290;2023-09-12T08:36:39;24.20;52.00
24326;DHT22;12448;45.532;5.290;2023-09-12T08:39:04;24.30;52.30
24326;DHT22;12448;45.532;5.290;2023-09-12T08:41:33;24.30;52.60
24326;DHT22;12448;45.532;5.290;2023-09-12T08:43:59;24.20;52.90
24326;DHT22;12448;45.532;5.290;2023-09-12T08:46:26;24.30;53.10
24326;DHT22;12448;45.532;5.290;2023-09-12T08:48:52;24.30;53.60
24326;DHT22;12448;45.532;5.290;2023-09-12T08:51:21;24.30;53.40
24326;DHT22;12448;45.532;5.290;2023-09-12T08:53:49;24.40;53.30
24326;DHT22;12448;45.532;5.290;2023-09-12T08:56:15;24.40;53.50
24326;DHT22;12448;45.532;5.290;2023-09-12T08:58:41;24.40;53.60
24326;DHT22;12448;45.532;5.290;2023-09-12T09:01:10;24.50;53.50
24326;DHT22;12448;45.532;5.290;2023-09-12T09:03:39;24.50;53.40
24326;DHT22;12448;45.532;5.290;2023-09-12T09:06:06;24.50;53.60
24326;DHT22;12448;45.532;5.290;2023-09-12T09:08:33;24.60;54.20
24326;DHT22;12448;45.532;5.290;2023-09-12T09:11:00;24.60;53.50
24326;DHT22;12448;45.532;5.290;2023-09-12T09:13:34;24.60;53.50
24326;DHT22;12448;45.532;5.290;2023-09-12T09:18:55;24.80;53.50
24326;DHT22;12448;45.532;5.290;2023-09-12T09:21:22;24.80;53.30
24326;DHT22;12448;45.532;5.290;2023-09-12T09:23:54;24.90;53.30
24326;DHT22;12448;45.532;5.290;2023-09-12T09:26:21;24.90;53.90
24326;DHT22;12448;45.532;5.290;2023-09-12T09:29:06;24.90;53.60
24326;DHT22;12448;45.532;5.290;2023-09-12T09:31:32;25.10;53.50
24326;DHT22;12448;45.532;5.290;2023-09-12T09:33:59;25.10;53.60
24326;DHT22;12448;45.532;5.290;2023-09-12T09:36:27;25.20;53.70
24326;DHT22;12448;45.532;5.290;2023-09-12T09:38:54;25.20;53.90
24326;DHT22;12448;45.532;5.290;2023-09-12T09:41:20;25.20;53.80
24326;DHT22;12448;45.532;5.290;2023-09-12T09:43:50;25.30;53.80
24326;DHT22;12448;45.532;5.290;2023-09-12T09:46:19;25.30;53.70
24326;DHT22;12448;45.532;5.290;2023-09-12T09:48:49;25.40;53.50
24326;DHT22;12448;45.532;5.290;2023-09-12T09:51:16;25.50;53.40
24326;DHT22;12448;45.532;5.290;2023-09-12T09:53:42;25.50;53.80
24326;DHT22;12448;45.532;5.290;2023-09-12T09:56:13;25.60;53.40
24326;DHT22;12448;45.532;5.290;2023-09-12T10:01:19;25.70;53.30
24326;DHT22;12448;45.532;5.290;2023-09-12T10:03:49;25.70;53.20
24326;DHT22;12448;45.532;5.290;2023-09-12T10:06:16;25.80;53.10
24326;DHT22;12448;45.532;5.290;2023-09-12T10:08:52;25.80;53.20
24326;DHT22;12448;45.532;5.290;2023-09-12T10:11:22;25.80;53.30
24326;DHT22;12448;45.532;5.290;2023-09-12T10:13:56;25.80;53.70
24326;DHT22;12448;45.532;5.290;2023-09-12T10:16:30;26.00;54.90
24326;DHT22;12448;45.532;5.290;2023-09-12T10:21:36;26.00;54.70
24326;DHT22;12448;45.532;5.290;2023-09-12T10:24:05;26.00;54.80
24326;DHT22;12448;45.532;5.290;2023-09-12T10:26:34;26.10;55.20
24326;DHT22;12448;45.532;5.290;2023-09-12T10:29:00;26.20;55.00
24326;DHT22;12448;45.532;5.290;2023-09-12T10:31:28;26.20;54.80
24326;DHT22;12448;45.532;5.290;2023-09-12T10:33:54;26.20;54.50
24326;DHT22;12448;45.532;5.290;2023-09-12T10:36:20;26.30;54.60
24326;DHT22;12448;45.532;5.290;2023-09-12T10:38:47;26.30;54.10
24326;DHT22;12448;45.532;5.290;2023-09-12T10:41:14;26.40;54.30
24326;DHT22;12448;45.532;5.290;2023-09-12T10:43:42;26.30;53.80
24326;DHT22;12448;45.532;5.290;2023-09-12T10:46:08;26.30;54.20
24326;DHT22;12448;45.532;5.290;2023-09-12T10:48:35;26.40;54.00
24326;DHT22;12448;45.532;5.290;2023-09-12T10:51:02;26.50;54.20
24326;DHT22;12448;45.532;5.290;2023-09-12T10:53:31;26.60;54.20
24326;DHT22;12448;45.532;5.290;2023-09-12T11:01:42;26.70;53.30
24326;DHT22;12448;45.532;5.290;2023-09-12T11:06:52;26.80;54.20
24326;DHT22;12448;45.532;5.290;2023-09-12T11:11:55;26.80;52.00
24326;DHT22;12448;45.532;5.290;2023-09-12T11:14:21;26.90;51.80
24326;DHT22;12448;45.532;5.290;2023-09-12T11:19:59;27.00;51.80
24326;DHT22;12448;45.532;5.290;2023-09-12T11:22:29;27.10;51.70
24326;DHT22;12448;45.532;5.290;2023-09-12T11:24:57;27.10;52.00
24326;DHT22;12448;45.532;5.290;2023-09-12T11:27:32;27.10;51.90
24326;DHT22;12448;45.532;5.290;2023-09-12T11:30:06;27.30;52.30
24326;DHT22;12448;45.532;5.290;2023-09-12T11:32:35;27.30;51.60
24326;DHT22;12448;45.532;5.290;2023-09-12T11:35:08;27.30;51.70
24326;DHT22;12448;45.532;5.290;2023-09-12T11:37:34;27.40;51.50
24326;DHT22;12448;45.532;5.290;2023-09-12T11:40:15;27.20;51.50
24326;DHT22;12448;45.532;5.290;2023-09-12T11:42:42;27.20;51.60
24326;DHT22;12448;45.532;5.290;2023-09-12T11:45:09;27.10;52.70
24326;DHT22;12448;45.532;5.290;2023-09-12T11:47:43;27.10;52.30
24326;DHT22;12448;45.532;5.290;2023-09-12T11:53:01;27.30;53.20
24326;DHT22;12448;45.532;5.290;2023-09-12T11:55:27;27.30;53.10
24326;DHT22;12448;45.532;5.290;2023-09-12T11:57:55;27.40;53.00
24326;DHT22;12448;45.532;5.290;2023-09-12T12:00:22;27.50;52.80
24326;DHT22;12448;45.532;5.290;2023-09-12T12:02:48;27.60;52.30
24326;DHT22;12448;45.532;5.290;2023-09-12T12:05:13;27.70;51.20
24326;DHT22;12448;45.532;5.290;2023-09-12T12:07:39;27.80;50.60
24326;DHT22;12448;45.532;5.290;2023-09-12T12:10:05;27.80;49.10
24326;DHT22;12448;45.532;5.290;2023-09-12T12:12:31;27.90;49.10
24326;DHT22;12448;45.532;5.290;2023-09-12T12:14:56;28.00;49.60
24326;DHT22;12448;45.532;5.290;2023-09-12T12:17:22;28.00;49.70
24326;DHT22;12448;45.532;5.290;2023-09-12T12:19:48;28.10;49.20
24326;DHT22;12448;45.532;5.290;2023-09-12T12:22:13;28.20;48.30
24326;DHT22;12448;45.532;5.290;2023-09-12T12:24:46;28.20;48.20
24326;DHT22;12448;45.532;5.290;2023-09-12T12:27:15;28.20;47.70
24326;DHT22;12448;45.532;5.290;2023-09-12T12:29:41;28.10;47.30
24326;DHT22;12448;45.532;5.290;2023-09-12T12:32:10;28.10;47.20
24326;DHT22;12448;45.532;5.290;2023-09-12T12:34:36;28.00;47.60
24326;DHT22;12448;45.532;5.290;2023-09-12T12:37:03;28.00;47.10
24326;DHT22;12448;45.532;5.290;2023-09-12T12:39:28;28.00;47.40
24326;DHT22;12448;45.532;5.290;2023-09-12T12:41:55;28.00;48.20
24326;DHT22;12448;45.532;5.290;2023-09-12T12:44:21;28.10;48.80
24326;DHT22;12448;45.532;5.290;2023-09-12T12:46:51;28.10;47.60
24326;DHT22;12448;45.532;5.290;2023-09-12T12:49:18;28.00;48.40
24326;DHT22;12448;45.532;5.290;2023-09-12T12:51:44;28.00;48.10
24326;DHT22;12448;45.532;5.290;2023-09-12T12:54:10;27.90;47.10
24326;DHT22;12448;45.532;5.290;2023-09-12T12:56:36;27.80;47.30
24326;DHT22;12448;45.532;5.290;2023-09-12T12:59:05;27.80;47.50
24326;DHT22;12448;45.532;5.290;2023-09-12T13:01:33;27.80;47.70
24326;DHT22;12448;45.532;5.290;2023-09-12T13:03:59;27.70;47.90
24326;DHT22;12448;45.532;5.290;2023-09-12T13:06:25;27.70;48.30
24326;DHT22;12448;45.532;5.290;2023-09-12T13:08:52;27.70;48.60
24326;DHT22;12448;45.532;5.290;2023-09-12T13:11:18;27.80;48.90
24326;DHT22;12448;45.532;5.290;2023-09-12T13:13:45;28.00;49.10
24326;DHT22;12448;45.532;5.290;2023-09-12T13:16:13;28.00;49.10
24326;DHT22;12448;45.532;5.290;2023-09-12T13:18:39;28.10;49.40
24326;DHT22;12448;45.532;5.290;2023-09-12T13:21:05;28.10;49.60
24326;DHT22;12448;45.532;5.290;2023-09-12T13:23:35;28.10;49.80
24326;DHT22;12448;45.532;5.290;2023-09-12T13:26:01;28.30;49.60
24326;DHT22;12448;45.532;5.290;2023-09-12T13:28:28;28.40;49.70
24326;DHT22;12448;45.532;5.290;2023-09-12T13:30:54;28.50;49.40
24326;DHT22;12448;45.532;5.290;2023-09-12T13:33:20;28.60;48.90
24326;DHT22;12448;45.532;5.290;2023-09-12T13:35:47;28.60;48.50
24326;DHT22;12448;45.532;5.290;2023-09-12T13:38:13;28.60;48.50
24326;DHT22;12448;45.532;5.290;2023-09-12T13:40:43;28.60;48.70
24326;DHT22;12448;45.532;5.290;2023-09-12T13:43:09;28.50;48.90
24326;DHT22;12448;45.532;5.290;2023-09-12T13:45:35;28.50;49.00
24326;DHT22;12448;45.532;5.290;2023-09-12T13:48:02;28.40;49.20
24326;DHT22;12448;45.532;5.290;2023-09-12T13:50:29;28.40;49.50
24326;DHT22;12448;45.532;5.290;2023-09-12T13:52:55;28.40;49.70
24326;DHT22;12448;45.532;5.290;2023-09-12T13:55:22;28.50;50.20
24326;DHT22;12448;45.532;5.290;2023-09-12T13:57:47;28.40;50.40
24326;DHT22;12448;45.532;5.290;2023-09-12T14:00:13;28.30;50.70
24326;DHT22;12448;45.532;5.290;2023-09-12T14:02:39;28.30;50.60
24326;DHT22;12448;45.532;5.290;2023-09-12T14:05:04;28.30;50.50
24326;DHT22;12448;45.532;5.290;2023-09-12T14:07:30;28.20;50.40
24326;DHT22;12448;45.532;5.290;2023-09-12T14:09:56;28.20;50.40
24326;DHT22;12448;45.532;5.290;2023-09-12T14:12:23;28.20;50.40
24326;DHT22;12448;45.532;5.290;2023-09-12T14:14:49;28.10;51.30
24326;DHT22;12448;45.532;5.290;2023-09-12T14:17:14;28.10;51.10
24326;DHT22;12448;45.532;5.290;2023-09-12T14:19:40;28.10;50.90
24326;DHT22;12448;45.532;5.290;2023-09-12T14:22:06;27.90;51.00
24326;DHT22;12448;45.532;5.290;2023-09-12T14:24:31;27.80;51.90
24326;DHT22;12448;45.532;5.290;2023-09-12T14:27:00;27.70;51.80
24326;DHT22;12448;45.532;5.290;2023-09-12T14:29:26;27.70;52.10
24326;DHT22;12448;45.532;5.290;2023-09-12T14:31:55;27.70;52.30
24326;DHT22;12448;45.532;5.290;2023-09-12T14:34:26;27.70;52.50
24326;DHT22;12448;45.532;5.290;2023-09-12T14:36:55;27.70;52.80
24326;DHT22;12448;45.532;5.290;2023-09-12T14:39:24;27.70;53.00
24326;DHT22;12448;45.532;5.290;2023-09-12T14:41:51;27.70;53.20
24326;DHT22;12448;45.532;5.290;2023-09-12T14:44:20;27.70;53.20
24326;DHT22;12448;45.532;5.290;2023-09-12T14:46:46;27.60;53.20
24326;DHT22;12448;45.532;5.290;2023-09-12T14:49:12;27.60;53.40
24326;DHT22;12448;45.532;5.290;2023-09-12T14:51:37;27.60;53.60
24326;DHT22;12448;45.532;5.290;2023-09-12T14:54:03;27.50;53.80
24326;DHT22;12448;45.532;5.290;2023-09-12T14:56:30;27.50;53.90
24326;DHT22;12448;45.532;5.290;2023-09-12T14:58:56;27.50;54.10
24326;DHT22;12448;45.532;5.290;2023-09-12T15:01:21;27.40;54.40
24326;DHT22;12448;45.532;5.290;2023-09-12T15:03:49;27.30;54.50
24326;DHT22;12448;45.532;5.290;2023-09-12T15:06:14;27.20;54.80
24326;DHT22;12448;45.532;5.290;2023-09-12T15:08:40;27.20;55.20
24326;DHT22;12448;45.532;5.290;2023-09-12T15:11:05;27.10;55.50
24326;DHT22;12448;45.532;5.290;2023-09-12T15:13:31;27.00;55.70
24326;DHT22;12448;45.532;5.290;2023-09-12T15:15:57;27.00;55.90
24326;DHT22;12448;45.532;5.290;2023-09-12T15:18:22;26.90;56.00
24326;DHT22;12448;45.532;5.290;2023-09-12T15:20:48;27.00;56.20
24326;DHT22;12448;45.532;5.290;2023-09-12T15:23:13;27.00;56.30
24326;DHT22;12448;45.532;5.290;2023-09-12T15:25:39;27.00;57.10
24326;DHT22;12448;45.532;5.290;2023-09-12T15:28:05;26.90;56.70
24326;DHT22;12448;45.532;5.290;2023-09-12T15:30:31;26.90;56.70
24326;DHT22;12448;45.532;5.290;2023-09-12T15:32:56;26.90;56.50
24326;DHT22;12448;45.532;5.290;2023-09-12T15:35:22;26.90;56.50
24326;DHT22;12448;45.532;5.290;2023-09-12T15:37:47;26.80;56.30
24326;DHT22;12448;45.532;5.290;2023-09-12T15:40:13;26.80;56.10
24326;DHT22;12448;45.532;5.290;2023-09-12T15:42:39;26.70;56.20
24326;DHT22;12448;45.532;5.290;2023-09-12T15:45:05;26.80;56.40
24326;DHT22;12448;45.532;5.290;2023-09-12T15:47:34;26.70;56.40
24326;DHT22;12448;45.532;5.290;2023-09-12T15:50:00;26.70;56.60
24326;DHT22;12448;45.532;5.290;2023-09-12T15:52:25;26.70;56.60
24326;DHT22;12448;45.532;5.290;2023-09-12T15:54:51;26.70;56.80
24326;DHT22;12448;45.532;5.290;2023-09-12T15:57:20;26.60;56.90